Flight Track Log - Related Links

Times and Time Zones

All times are in EDT time to prevent confusion due to time zone crossing. See the N502QS flight status page for this flight to view local times or setup timezone preferences in your user account.

Time Position Orientation Groundspeed Altitude Reporting Facility
EDT Latitude Longitude Course Direction KTS MPH feet Rate Location/Type
Thu 12:15:06 PM 32.7500 -117.2167 283° West 172 198 2,100  Level Southern California TRACON
Thu 12:16:12 PM 32.7667 -117.3000 283° West 213 245 5,600 3,000 Climbing Southern California TRACON
Thu 12:17:06 PM 32.7500 -117.3500 248° West 228 262 8,100 2,842 Climbing Southern California TRACON
Thu 12:18:06 PM 32.7000 -117.3000 140° Southeast 233 268 11,000 2,028 Climbing Southern California TRACON
Thu 12:19:31 PM 32.6358 -117.1928 125° Southeast 303 349 13,000 1,800 Climbing Los Angeles Center
Thu 12:20:06 PM 32.6000 -117.1167 119° Southeast 362 417 14,600 2,337 Climbing Southern California TRACON
Thu 12:21:06 PM 32.5500 -117.0000 117° Southeast 398 458 16,700 2,100 Climbing Southern California TRACON
Thu 12:23:00 PM 32.4178 -116.7355 121° Southeast  Level FlightAware Approximate
Thu 12:30:00 PM 31.8954 -115.7849 123° Southeast  Level FlightAware Approximate
Thu 12:31:00 PM 31.8209 -115.6493 123° Southeast  Level FlightAware Approximate
Thu 12:32:00 PM 31.7464 -115.5139 123° Southeast  Level FlightAware Approximate
Thu 12:33:00 PM 31.6708 -115.3793 123° Southeast  Level FlightAware Approximate
Thu 12:34:00 PM 31.5913 -115.2492 120° Southeast  Level FlightAware Approximate
Thu 12:35:00 PM 31.5212 -115.1108 122° Southeast  Level FlightAware Approximate
Thu 12:36:00 PM 31.4480 -114.9748 122° Southeast  Level FlightAware Approximate
Thu 12:37:00 PM 31.3724 -114.8407 124° Southeast  Level FlightAware Approximate
Thu 12:38:00 PM 31.2950 -114.7081 124° Southeast  Level FlightAware Approximate
Thu 12:39:00 PM 31.2179 -114.5755 124° Southeast  Level FlightAware Approximate
Thu 12:40:00 PM 31.1406 -114.4430 124° Southeast  Level FlightAware Approximate
Thu 12:41:00 PM 31.0629 -114.3111 128° Southeast  Level FlightAware Approximate
Thu 12:42:00 PM 30.9781 -114.1853 128° Southeast  Level FlightAware Approximate
Thu 12:43:00 PM 30.8931 -114.0598 128° Southeast  Level FlightAware Approximate
Thu 12:44:00 PM 30.8080 -113.9344 128° Southeast  Level FlightAware Approximate
Thu 12:45:00 PM 30.7228 -113.8094 128° Southeast  Level FlightAware Approximate
Thu 12:46:00 PM 30.6375 -113.6845 128° Southeast  Level FlightAware Approximate
Thu 12:47:00 PM 30.5520 -113.5598 128° Southeast  Level FlightAware Approximate
Thu 12:48:00 PM 30.4665 -113.4354 129° Southeast  Level FlightAware Approximate
Thu 12:49:00 PM 30.3808 -113.3112 129° Southeast  Level FlightAware Approximate
Thu 12:50:00 PM 30.2946 -113.1876 129° Southeast  Level FlightAware Approximate
Thu 12:51:00 PM 30.2081 -113.0643 129° Southeast  Level FlightAware Approximate
Thu 12:52:00 PM 30.1215 -112.9413 129° Southeast  Level FlightAware Approximate
Thu 12:53:00 PM 30.0347 -112.8185 129° Southeast  Level FlightAware Approximate
Thu 12:54:00 PM 29.9479 -112.6960 129° Southeast  Level FlightAware Approximate
Thu 12:55:00 PM 29.8609 -112.5736 129° Southeast  Level FlightAware Approximate
Thu 12:56:00 PM 29.7739 -112.4514 129° Southeast  Level FlightAware Approximate
Thu 12:57:00 PM 29.6867 -112.3295 129° Southeast  Level FlightAware Approximate
Thu 12:58:00 PM 29.5994 -112.2078 129° Southeast  Level FlightAware Approximate
Thu 12:59:00 PM 29.5120 -112.0863 130° Southeast  Level FlightAware Approximate
Thu 01:00:00 PM 29.4244 -111.9650 130° Southeast  Level FlightAware Approximate
Thu 01:01:00 PM 29.3368 -111.8438 130° Southeast  Level FlightAware Approximate
Thu 01:02:00 PM 29.2491 -111.7230 130° Southeast  Level FlightAware Approximate
Thu 01:03:00 PM 29.1612 -111.6023 130° Southeast  Level FlightAware Approximate
Thu 01:04:00 PM 29.0733 -111.4818 130° Southeast  Level FlightAware Approximate
Thu 01:05:00 PM 28.9857 -111.3611 130° Southeast  Level FlightAware Approximate
Thu 01:06:00 PM 28.8982 -111.2404 130° Southeast  Level FlightAware Approximate
Thu 01:07:00 PM 28.8105 -111.1199 130° Southeast  Level FlightAware Approximate
Thu 01:08:00 PM 28.7228 -110.9997 130° Southeast  Level FlightAware Approximate
Thu 01:09:00 PM 28.6349 -110.8796 130° Southeast  Level FlightAware Approximate
Thu 01:10:00 PM 28.5470 -110.7597 130° Southeast  Level FlightAware Approximate
Thu 01:11:00 PM 28.4589 -110.6401 130° Southeast  Level FlightAware Approximate
Thu 01:12:00 PM 28.3708 -110.5206 130° Southeast  Level FlightAware Approximate
Thu 01:13:00 PM 28.2825 -110.4013 130° Southeast  Level FlightAware Approximate
Thu 01:14:00 PM 28.1941 -110.2822 130° Southeast  Level FlightAware Approximate
Thu 01:15:00 PM 28.1057 -110.1634 130° Southeast  Level FlightAware Approximate
Thu 01:16:00 PM 28.0171 -110.0447 130° Southeast  Level FlightAware Approximate
Thu 01:17:00 PM 27.9284 -109.9262 130° Southeast  Level FlightAware Approximate
Thu 01:18:00 PM 27.8396 -109.8079 130° Southeast  Level FlightAware Approximate
Thu 01:19:00 PM 27.7508 -109.6898 130° Southeast  Level FlightAware Approximate
Thu 01:20:00 PM 27.6627 -109.5710 130° Southeast  Level FlightAware Approximate
Thu 01:21:00 PM 27.5748 -109.4522 130° Southeast  Level FlightAware Approximate
Thu 01:22:00 PM 27.4867 -109.3336 130° Southeast  Level FlightAware Approximate
Thu 01:23:00 PM 27.3986 -109.2152 130° Southeast  Level FlightAware Approximate
Thu 01:24:00 PM 27.3096 -109.0977 131° Southeast  Level FlightAware Approximate
Thu 01:25:00 PM 27.2195 -108.9814 131° Southeast  Level FlightAware Approximate
Thu 01:26:00 PM 27.1293 -108.8652 131° Southeast  Level FlightAware Approximate
Thu 01:27:00 PM 27.0390 -108.7493 131° Southeast  Level FlightAware Approximate
Thu 01:28:00 PM 26.9486 -108.6335 131° Southeast  Level FlightAware Approximate
Thu 01:29:00 PM 26.8581 -108.5179 131° Southeast  Level FlightAware Approximate
Thu 01:30:00 PM 26.7675 -108.4025 131° Southeast  Level FlightAware Approximate
Thu 01:31:00 PM 26.6797 -108.2847 125° Southeast  Level FlightAware Approximate
Thu 01:32:00 PM 26.6003 -108.1596 125° Southeast  Level FlightAware Approximate
Thu 01:33:00 PM 26.5207 -108.0347 125° Southeast  Level FlightAware Approximate
Thu 01:34:00 PM 26.4405 -107.9104 126° Southeast  Level FlightAware Approximate
Thu 01:35:00 PM 26.3590 -107.7872 126° Southeast  Level FlightAware Approximate
Thu 01:36:00 PM 26.2774 -107.6642 126° Southeast  Level FlightAware Approximate
Thu 01:37:00 PM 26.1957 -107.5414 127° Southeast  Level FlightAware Approximate
Thu 01:38:00 PM 26.1139 -107.4187 127° Southeast  Level FlightAware Approximate
Thu 01:39:00 PM 26.0320 -107.2962 127° Southeast  Level FlightAware Approximate
Thu 01:40:00 PM 25.9500 -107.1739 127° Southeast  Level FlightAware Approximate
Thu 01:41:00 PM 25.8679 -107.0518 127° Southeast  Level FlightAware Approximate
Thu 01:42:00 PM 25.7837 -106.9314 128° Southeast  Level FlightAware Approximate
Thu 01:43:00 PM 25.7022 -106.8090 125° Southeast  Level FlightAware Approximate
Thu 01:44:00 PM 25.6226 -106.6851 125° Southeast  Level FlightAware Approximate
Thu 01:45:00 PM 25.5428 -106.5614 126° Southeast  Level FlightAware Approximate
Thu 01:46:00 PM 25.4629 -106.4379 126° Southeast  Level FlightAware Approximate
Thu 01:47:00 PM 25.3819 -106.3153 127° Southeast  Level FlightAware Approximate
Thu 01:48:00 PM 25.2995 -106.1940 127° Southeast  Level FlightAware Approximate
Thu 01:49:00 PM 25.2171 -106.0728 127° Southeast  Level FlightAware Approximate
Thu 01:50:00 PM 25.1345 -105.9518 127° Southeast  Level FlightAware Approximate
Thu 01:51:00 PM 25.0488 -105.8335 129° Southeast  Level FlightAware Approximate
Thu 01:52:00 PM 24.9630 -105.7154 129° Southeast  Level FlightAware Approximate
Thu 01:53:00 PM 24.8771 -105.5976 129° Southeast  Level FlightAware Approximate
Thu 01:54:00 PM 24.7975 -105.4745 125° Southeast  Level FlightAware Approximate
Thu 01:55:00 PM 24.7164 -105.3527 128° Southeast  Level FlightAware Approximate
Thu 01:56:00 PM 24.6318 -105.2339 128° Southeast  Level FlightAware Approximate
Thu 01:57:00 PM 24.5471 -105.1153 128° Southeast  Level FlightAware Approximate
Thu 01:58:00 PM 24.4623 -104.9968 128° Southeast  Level FlightAware Approximate
Thu 01:59:00 PM 24.3774 -104.8784 128° Southeast  Level FlightAware Approximate
Thu 02:00:00 PM 24.2925 -104.7603 128° Southeast  Level FlightAware Approximate
Thu 02:01:00 PM 24.2074 -104.6423 128° Southeast  Level FlightAware Approximate
Thu 02:02:00 PM 24.1223 -104.5244 128° Southeast  Level FlightAware Approximate
Thu 02:03:00 PM 24.0424 -104.4023 125° Southeast  Level FlightAware Approximate
Thu 02:04:00 PM 23.9628 -104.2800 125° Southeast  Level FlightAware Approximate
Thu 02:05:00 PM 23.8831 -104.1579 125° Southeast  Level FlightAware Approximate
Thu 02:06:00 PM 23.8033 -104.0359 126° Southeast  Level FlightAware Approximate
Thu 02:07:00 PM 23.7234 -103.9140 126° Southeast  Level FlightAware Approximate
Thu 02:08:00 PM 23.6435 -103.7924 126° Southeast  Level FlightAware Approximate
Thu 02:09:00 PM 23.5634 -103.6708 126° Southeast  Level FlightAware Approximate
Thu 02:10:00 PM 23.4822 -103.5503 127° Southeast  Level FlightAware Approximate
Thu 02:11:00 PM 23.3994 -103.4311 127° Southeast  Level FlightAware Approximate
Thu 02:12:00 PM 23.3165 -103.3120 127° Southeast  Level FlightAware Approximate
Thu 02:13:00 PM 23.2335 -103.1932 127° Southeast  Level FlightAware Approximate
Thu 02:14:00 PM 23.1504 -103.0744 127° Southeast  Level FlightAware Approximate
Thu 02:15:00 PM 23.0686 -102.9548 126° Southeast  Level FlightAware Approximate
Thu 02:16:00 PM 22.9870 -102.8350 126° Southeast  Level FlightAware Approximate
Thu 02:17:00 PM 22.9052 -102.7154 127° Southeast  Level FlightAware Approximate
Thu 02:18:00 PM 22.8128 -102.6058 135° Southeast  Level FlightAware Approximate
Thu 02:19:00 PM 22.7164 -102.5000 135° Southeast  Level FlightAware Approximate
Thu 02:20:00 PM 22.6199 -102.3943 135° Southeast  Level FlightAware Approximate
Thu 02:21:00 PM 22.5233 -102.2888 135° Southeast  Level FlightAware Approximate
Thu 02:22:00 PM 22.4267 -102.1835 135° Southeast  Level FlightAware Approximate
Thu 02:23:00 PM 22.3305 -102.0778 134° Southeast  Level FlightAware Approximate
Thu 02:24:00 PM 22.2358 -101.9705 134° Southeast  Level FlightAware Approximate
Thu 02:25:00 PM 22.1411 -101.8634 134° Southeast  Level FlightAware Approximate
Thu 02:26:00 PM 22.0463 -101.7564 134° Southeast  Level FlightAware Approximate
Thu 02:27:00 PM 21.9515 -101.6495 134° Southeast  Level FlightAware Approximate
Thu 02:28:00 PM 21.8566 -101.5428 134° Southeast  Level FlightAware Approximate
Thu 02:29:00 PM 21.7617 -101.4361 134° Southeast  Level FlightAware Approximate
Thu 02:30:00 PM 21.6663 -101.3300 135° Southeast  Level FlightAware Approximate
Thu 02:31:00 PM 21.5699 -101.2251 135° Southeast  Level FlightAware Approximate
Thu 02:32:00 PM 21.4733 -101.1204 135° Southeast  Level FlightAware Approximate
Thu 02:33:00 PM 21.3768 -101.0157 135° Southeast  Level FlightAware Approximate
Thu 02:34:00 PM 21.2801 -100.9112 135° Southeast  Level FlightAware Approximate
Thu 02:35:00 PM 21.1834 -100.8069 135° Southeast  Level FlightAware Approximate
Thu 02:36:00 PM 21.0866 -100.7027 135° Southeast  Level FlightAware Approximate
Thu 02:37:00 PM 20.9897 -100.5986 135° Southeast  Level FlightAware Approximate
Thu 02:38:00 PM 20.8928 -100.4947 135° Southeast  Level FlightAware Approximate
Thu 02:39:00 PM 20.7980 -100.3887 133° Southeast  Level FlightAware Approximate
Thu 02:40:00 PM 20.7039 -100.2820 133° Southeast  Level FlightAware Approximate
Thu 02:41:00 PM 20.6103 -100.1748 128° Southeast  Level FlightAware Approximate
Thu 02:42:00 PM 20.5250 -100.0602 128° Southeast  Level FlightAware Approximate
Thu 02:43:00 PM 20.4395 -99.9457 129° Southeast  Level FlightAware Approximate
Thu 02:44:00 PM 20.3539 -99.8313 129° Southeast  Level FlightAware Approximate
Thu 02:45:00 PM 20.2683 -99.7170 129° Southeast  Level FlightAware Approximate
Thu 02:46:00 PM 20.1826 -99.6029 129° Southeast  Level FlightAware Approximate
Thu 02:47:00 PM 20.0969 -99.4888 129° Southeast  Level FlightAware Approximate
Thu 02:48:00 PM 20.0110 -99.3749 129° Southeast  Level FlightAware Approximate
Thu 02:49:00 PM 19.9251 -99.2612 129° Southeast  Level FlightAware Approximate
Thu 02:50:00 PM 19.8374 -99.1490 130° Southeast  Level FlightAware Approximate
Thu 02:51:00 PM 19.7495 -99.0372 130° Southeast  Level FlightAware Approximate
Thu 02:52:00 PM 19.6571 -98.9296 133° Southeast  Level FlightAware Approximate
Thu 02:53:00 PM 19.5636 -98.8230 133° Southeast  Level FlightAware Approximate
Thu 02:54:00 PM 19.4701 -98.7165 133° Southeast  Level FlightAware Approximate
Thu 02:55:00 PM 19.3766 -98.6102 133° Southeast  Level FlightAware Approximate
Thu 02:56:00 PM 19.2829 -98.5040 133° Southeast  Level FlightAware Approximate
Thu 02:57:00 PM 19.1853 -98.4020 137° Southeast  Level FlightAware Approximate
Thu 02:58:00 PM 19.0935 -98.2944 130° Southeast  Level FlightAware Approximate
Thu 02:59:00 PM 19.0060 -98.1827 130° Southeast  Level FlightAware Approximate
Thu 03:00:00 PM 18.9185 -98.0710 130° Southeast  Level FlightAware Approximate
Thu 03:01:00 PM 18.8308 -97.9595 130° Southeast  Level FlightAware Approximate
Thu 03:02:00 PM 18.7432 -97.8481 130° Southeast  Level FlightAware Approximate
Thu 03:03:00 PM 18.6554 -97.7368 130° Southeast  Level FlightAware Approximate
Thu 03:04:00 PM 18.5669 -97.6262 131° Southeast  Level FlightAware Approximate
Thu 03:05:00 PM 18.4772 -97.5168 131° Southeast  Level FlightAware Approximate
Thu 03:06:00 PM 18.3875 -97.4074 131° Southeast  Level FlightAware Approximate
Thu 03:07:00 PM 18.2977 -97.2982 131° Southeast  Level FlightAware Approximate
Thu 03:08:00 PM 18.2078 -97.1891 131° Southeast  Level FlightAware Approximate
Thu 03:09:00 PM 18.1179 -97.0801 131° Southeast  Level FlightAware Approximate
Thu 03:10:00 PM 18.0279 -96.9713 131° Southeast  Level FlightAware Approximate
Thu 03:11:00 PM 17.9378 -96.8625 131° Southeast  Level FlightAware Approximate
Thu 03:12:00 PM 17.8477 -96.7538 131° Southeast  Level FlightAware Approximate
Thu 03:13:00 PM 17.7575 -96.6453 131° Southeast  Level FlightAware Approximate
Thu 03:14:00 PM 17.6673 -96.5368 131° Southeast  Level FlightAware Approximate
Thu 03:15:00 PM 17.5770 -96.4285 131° Southeast  Level FlightAware Approximate
Thu 03:16:00 PM 17.4866 -96.3203 131° Southeast  Level FlightAware Approximate
Thu 03:17:00 PM 17.3962 -96.2122 132° Southeast  Level FlightAware Approximate
Thu 03:18:00 PM 17.3045 -96.1053 132° Southeast  Level FlightAware Approximate
Thu 03:19:00 PM 17.2153 -95.9962 131° Southeast  Level FlightAware Approximate
Thu 03:20:00 PM 17.1261 -95.8872 131° Southeast  Level FlightAware Approximate
Thu 03:21:00 PM 17.0368 -95.7782 131° Southeast  Level FlightAware Approximate
Thu 03:22:00 PM 16.9467 -95.6701 131° Southeast  Level FlightAware Approximate
Thu 03:23:00 PM 16.8560 -95.5625 131° Southeast  Level FlightAware Approximate
Thu 03:24:00 PM 16.7652 -95.4551 131° Southeast  Level FlightAware Approximate
Thu 03:25:00 PM 16.6744 -95.3478 131° Southeast  Level FlightAware Approximate
Thu 03:26:00 PM 16.5835 -95.2406 131° Southeast  Level FlightAware Approximate
Thu 03:27:00 PM 16.4926 -95.1335 132° Southeast  Level FlightAware Approximate
Thu 03:28:00 PM 16.4112 -95.0189 122° Southeast  Level FlightAware Approximate
Thu 03:29:00 PM 16.3383 -94.8978 122° Southeast  Level FlightAware Approximate
Thu 03:30:00 PM 16.2653 -94.7769 122° Southeast  Level FlightAware Approximate
Thu 03:31:00 PM 16.1922 -94.6560 122° Southeast  Level FlightAware Approximate
Thu 03:32:00 PM 16.1191 -94.5352 122° Southeast  Level FlightAware Approximate
Thu 03:33:00 PM 16.0458 -94.4145 122° Southeast  Level FlightAware Approximate
Thu 03:34:00 PM 15.9726 -94.2938 122° Southeast  Level FlightAware Approximate
Thu 03:35:00 PM 15.8992 -94.1733 122° Southeast  Level FlightAware Approximate
Thu 03:36:00 PM 15.8258 -94.0529 122° Southeast  Level FlightAware Approximate
Thu 03:37:00 PM 15.7522 -93.9325 122° Southeast  Level FlightAware Approximate
Thu 03:38:00 PM 15.6786 -93.8123 122° Southeast  Level FlightAware Approximate
Thu 03:39:00 PM 15.6048 -93.6922 123° Southeast  Level FlightAware Approximate
Thu 03:40:00 PM 15.5310 -93.5722 123° Southeast  Level FlightAware Approximate
Thu 03:41:00 PM 15.4572 -93.4523 123° Southeast  Level FlightAware Approximate
Thu 03:42:00 PM 15.3833 -93.3324 123° Southeast  Level FlightAware Approximate
Thu 03:43:00 PM 15.3093 -93.2127 123° Southeast  Level FlightAware Approximate
Thu 03:44:00 PM 15.2352 -93.0930 123° Southeast  Level FlightAware Approximate
Thu 03:45:00 PM 15.1611 -92.9734 123° Southeast  Level FlightAware Approximate
Thu 03:46:00 PM 15.0869 -92.8539 123° Southeast  Level FlightAware Approximate
Thu 03:47:00 PM 15.0127 -92.7344 123° Southeast  Level FlightAware Approximate
Thu 03:48:00 PM 14.9384 -92.6151 123° Southeast  Level FlightAware Approximate
Thu 03:49:00 PM 14.8640 -92.4958 123° Southeast  Level FlightAware Approximate
Thu 03:50:00 PM 14.7896 -92.3766 123° Southeast  Level FlightAware Approximate
Thu 03:51:00 PM 14.7304 -92.2488 115° Southeast  Level FlightAware Approximate
Thu 03:52:00 PM 14.6726 -92.1202 115° Southeast  Level FlightAware Approximate
Thu 03:53:00 PM 14.6148 -91.9917 115° Southeast  Level FlightAware Approximate
Thu 03:54:00 PM 14.5568 -91.8632 115° Southeast  Level FlightAware Approximate
Thu 03:55:00 PM 14.4988 -91.7348 115° Southeast  Level FlightAware Approximate
Thu 03:56:00 PM 14.4407 -91.6065 115° Southeast  Level FlightAware Approximate
Thu 03:57:00 PM 14.3824 -91.4783 115° Southeast  Level FlightAware Approximate
Thu 03:58:00 PM 14.3236 -91.3504 115° Southeast  Level FlightAware Approximate
Thu 03:59:00 PM 14.2647 -91.2226 115° Southeast  Level FlightAware Approximate
Thu 04:00:00 PM 14.2057 -91.0948 115° Southeast  Level FlightAware Approximate
Thu 04:01:00 PM 14.1467 -90.9671 115° Southeast  Level FlightAware Approximate
Thu 04:02:00 PM 14.0876 -90.8394 116° Southeast  Level FlightAware Approximate
Thu 04:03:00 PM 14.0285 -90.7119 116° Southeast  Level FlightAware Approximate
Thu 04:04:00 PM 13.9693 -90.5844 116° Southeast  Level FlightAware Approximate
Thu 04:05:00 PM 13.9100 -90.4569 116° Southeast  Level FlightAware Approximate
Thu 04:06:00 PM 13.8506 -90.3295 116° Southeast  Level FlightAware Approximate
Thu 04:07:00 PM 13.7912 -90.2022 116° Southeast  Level FlightAware Approximate
Thu 04:08:00 PM 13.7317 -90.0750 116° Southeast  Level FlightAware Approximate
Thu 04:09:00 PM 13.6722 -89.9478 116° Southeast  Level FlightAware Approximate
Thu 04:10:00 PM 13.6126 -89.8207 116° Southeast  Level FlightAware Approximate
Thu 04:11:00 PM 13.5529 -89.6936 116° Southeast  Level FlightAware Approximate
Thu 04:12:00 PM 13.4931 -89.5666 116° Southeast  Level FlightAware Approximate
Thu 04:13:00 PM 13.4333 -89.4397 116° Southeast  Level FlightAware Approximate
Thu 04:14:00 PM 13.3735 -89.3129 116° Southeast  Level FlightAware Approximate
Thu 04:15:00 PM 13.3135 -89.1861 116° Southeast  Level FlightAware Approximate
Thu 04:16:00 PM 13.2535 -89.0593 116° Southeast  Level FlightAware Approximate
Thu 04:17:00 PM 13.1935 -88.9326 116° Southeast  Level FlightAware Approximate
Thu 04:18:00 PM 13.1334 -88.8060 116° Southeast  Level FlightAware Approximate
Thu 04:19:00 PM 13.0732 -88.6795 116° Southeast  Level FlightAware Approximate
Thu 04:20:00 PM 13.0130 -88.5530 116° Southeast  Level FlightAware Approximate
Thu 04:21:00 PM 12.9527 -88.4265 116° Southeast  Level FlightAware Approximate
Thu 04:22:00 PM 12.8924 -88.3001 116° Southeast  Level FlightAware Approximate
Thu 04:23:00 PM 12.8320 -88.1738 116° Southeast  Level FlightAware Approximate
Thu 04:24:00 PM 12.7715 -88.0476 116° Southeast  Level FlightAware Approximate
Thu 04:25:00 PM 12.7110 -87.9214 116° Southeast  Level FlightAware Approximate
Thu 04:26:00 PM 12.6504 -87.7953 116° Southeast  Level FlightAware Approximate
Thu 04:27:00 PM 12.5898 -87.6692 116° Southeast  Level FlightAware Approximate
Thu 04:28:00 PM 12.5291 -87.5432 116° Southeast  Level FlightAware Approximate
Thu 04:29:00 PM 12.4683 -87.4172 116° Southeast  Level FlightAware Approximate
Thu 04:30:00 PM 12.4075 -87.2913 116° Southeast  Level FlightAware Approximate
Thu 04:31:00 PM 12.3466 -87.1655 116° Southeast  Level FlightAware Approximate
Thu 04:32:00 PM 12.2857 -87.0397 116° Southeast  Level FlightAware Approximate
Thu 04:33:00 PM 12.2247 -86.9140 116° Southeast  Level FlightAware Approximate
Thu 04:34:00 PM 12.1636 -86.7883 116° Southeast  Level FlightAware Approximate
Thu 04:35:00 PM 12.1025 -86.6627 116° Southeast  Level FlightAware Approximate
Thu 04:36:00 PM 12.0414 -86.5372 116° Southeast  Level FlightAware Approximate
Thu 04:37:00 PM 11.9801 -86.4117 116° Southeast  Level FlightAware Approximate
Thu 04:38:00 PM 11.9184 -86.2865 117° Southeast  Level FlightAware Approximate
Thu 04:39:00 PM 11.8563 -86.1615 117° Southeast  Level FlightAware Approximate
Thu 04:40:00 PM 11.7941 -86.0366 117° Southeast  Level FlightAware Approximate
Thu 04:41:00 PM 11.7318 -85.9118 117° Southeast  Level FlightAware Approximate
Thu 04:42:00 PM 11.6695 -85.7870 117° Southeast  Level FlightAware Approximate
Thu 04:43:00 PM 11.6072 -85.6622 117° Southeast  Level FlightAware Approximate
Thu 04:44:00 PM 11.5448 -85.5376 117° Southeast  Level FlightAware Approximate
Thu 04:45:00 PM 11.4823 -85.4129 117° Southeast  Level FlightAware Approximate
Thu 04:46:00 PM 11.4198 -85.2884 117° Southeast  Level FlightAware Approximate
Thu 04:47:00 PM 11.3572 -85.1639 117° Southeast  Level FlightAware Approximate
Thu 04:48:00 PM 11.2952 -85.0391 116° Southeast  Level FlightAware Approximate
Thu 04:49:00 PM 11.2345 -84.9137 116° Southeast  Level FlightAware Approximate
Thu 04:50:00 PM 11.1737 -84.7883 116° Southeast  Level FlightAware Approximate
Thu 04:51:00 PM 11.1129 -84.6630 116° Southeast  Level FlightAware Approximate
Thu 04:52:00 PM 11.0520 -84.5378 116° Southeast  Level FlightAware Approximate
Thu 04:53:00 PM 10.9911 -84.4126 116° Southeast  Level FlightAware Approximate
Thu 04:54:00 PM 10.9301 -84.2874 116° Southeast  Level FlightAware Approximate
Thu 04:55:00 PM 10.8691 -84.1624 116° Southeast  Level FlightAware Approximate
Thu 04:56:00 PM 10.8080 -84.0373 116° Southeast  Level FlightAware Approximate
Thu 04:57:00 PM 10.7468 -83.9123 116° Southeast  Level FlightAware Approximate
Thu 04:58:00 PM 10.6853 -83.7876 117° Southeast  Level FlightAware Approximate
Thu 04:59:00 PM 10.6227 -83.6634 117° Southeast  Level FlightAware Approximate
Thu 05:00:00 PM 10.5601 -83.5392 117° Southeast  Level FlightAware Approximate
Thu 05:01:00 PM 10.4974 -83.4152 117° Southeast  Level FlightAware Approximate
Thu 05:02:00 PM 10.4346 -83.2911 117° Southeast  Level FlightAware Approximate
Thu 05:03:00 PM 10.3718 -83.1672 117° Southeast  Level FlightAware Approximate
Thu 05:04:00 PM 10.3090 -83.0432 117° Southeast  Level FlightAware Approximate
Thu 05:05:00 PM 10.2461 -82.9193 117° Southeast  Level FlightAware Approximate
Thu 05:06:00 PM 10.1832 -82.7955 117° Southeast  Level FlightAware Approximate
Thu 05:07:00 PM 10.1202 -82.6717 117° Southeast  Level FlightAware Approximate
Thu 05:08:00 PM 10.0572 -82.5480 117° Southeast  Level FlightAware Approximate
Thu 05:09:00 PM 9.9942 -82.4242 117° Southeast  Level FlightAware Approximate
Thu 05:10:00 PM 9.9312 -82.3005 117° Southeast  Level FlightAware Approximate
Thu 05:11:00 PM 9.8682 -82.1768 117° Southeast  Level FlightAware Approximate
Thu 05:12:00 PM 9.8051 -82.0532 117° Southeast  Level FlightAware Approximate
Thu 05:13:00 PM 9.7419 -81.9297 117° Southeast  Level FlightAware Approximate
Thu 05:14:00 PM 9.6788 -81.8062 117° Southeast  Level FlightAware Approximate
Thu 05:15:00 PM 9.6133 -81.6839 119° Southeast  Level FlightAware Approximate
Thu 05:16:00 PM 9.5476 -81.5619 117° Southeast  Level FlightAware Approximate
Thu 05:17:00 PM 9.4856 -81.4378 117° Southeast  Level FlightAware Approximate
Thu 05:18:00 PM 9.4227 -81.3142 119° Southeast  Level FlightAware Approximate
Thu 05:19:00 PM 9.3554 -81.1931 119° Southeast  Level FlightAware Approximate
Thu 05:20:00 PM 9.2999 -81.0664 117° Southeast  Level FlightAware Approximate
Thu 05:21:00 PM 9.2540 -80.9368 101° East  Level FlightAware Approximate
Thu 05:22:00 PM 9.2281 -80.8003 101° East  Level FlightAware Approximate
Thu 05:23:00 PM 9.2023 -80.6638 101° East  Level FlightAware Approximate
Thu 05:24:00 PM 9.1765 -80.5274 101° East  Level FlightAware Approximate
Thu 05:25:00 PM 9.1506 -80.3909 101° East  Level FlightAware Approximate
Thu 05:26:00 PM 9.1243 -80.2546 101° East  Level FlightAware Approximate
Thu 05:27:00 PM 9.0966 -80.1185 103° East  Level FlightAware Approximate
Thu 05:28:00 PM 9.0654 -79.9833 103° East  Level FlightAware Approximate
Thu 05:29:00 PM 9.0362 -79.8476 101° East  Level FlightAware Approximate
Thu 05:30:00 PM 9.0071 -79.7119 104° East  Level FlightAware Approximate
Thu 05:31:00 PM 8.9833 -79.5756 90° East  Level FlightAware Approximate
Thu 05:32:00 PM 8.9733 -79.5556 90° East  Level Estimated
Thu 05:33:00 PM 8.9733 -79.5556 90° East  Level Estimated
Thu 05:34:00 PM 8.9733 -79.5556 90° East  Level Estimated
Thu 05:35:00 PM 8.9733 -79.5556 90° East  Level Estimated
Thu 05:36:00 PM 8.9733 -79.5556 90° East  Level Estimated
Thu 05:37:00 PM 8.9733 -79.5556 90° East  Level Estimated
Thu 05:38:00 PM 8.9733 -79.5556 90° East  Level Estimated
Thu 05:39:00 PM 8.9733 -79.5556 90° East  Level Estimated
Thu 05:40:00 PM 8.9733 -79.5556 90° East  Level Estimated
Thu 05:41:00 PM 8.9733 -79.5556 90° East  Level Estimated
Thu 05:42:00 PM 8.9733 -79.5556 90° East  Level Estimated
Thu 05:43:00 PM 8.9733 -79.5556 90° East  Level Estimated

Login

Don't have an account? Register now (free) for customized features, flight alerts, and more!